Time;durP1;ratioP1;P1;durP2;ratioP2;P2;SDS_P1;SDS_P2;PMS_P1;PMS_P2;Temp;Humidity;BMP_temperature;BMP_pressure;BME280_temperature;BME280_humidity;BME280_pressure;Samples;Min_cycle;Max_cycle;Signal;HPM_P1;HPM_P2
2023/05/05 00:00:56;;;;;;;3.00;1.30;;;;;;;16.88;42.98;100942.86;108118;1285;22058;-59
2023/05/05 00:03:22;;;;;;;3.80;1.70;;;;;;;16.74;43.29;100942.72;108141;1285;22006;-59
2023/05/05 00:05:48;;;;;;;2.10;1.30;;;;;;;16.70;43.33;100943.91;108187;1285;21991;-59
2023/05/05 00:08:14;;;;;;;3.20;1.60;;;;;;;16.59;43.38;100939.25;108170;1285;21992;-60
2023/05/05 00:10:41;;;;;;;2.60;1.50;;;;;;;16.38;43.74;100943.70;108061;1284;23757;-59
2023/05/05 00:13:07;;;;;;;3.20;1.60;;;;;;;16.30;44.10;100943.76;108245;1285;21984;-59
2023/05/05 00:15:33;;;;;;;3.60;1.50;;;;;;;16.44;43.51;100944.25;108226;1285;21990;-60
2023/05/05 00:17:59;;;;;;;3.00;1.40;;;;;;;16.41;43.24;100943.63;108225;1285;21973;-59
2023/05/05 00:20:24;;;;;;;2.20;1.30;;;;;;;16.31;43.31;100941.07;108279;1285;22034;-59
2023/05/05 00:22:50;;;;;;;3.30;1.30;;;;;;;16.14;43.53;100940.63;108197;1285;22751;-60
2023/05/05 00:25:16;;;;;;;2.40;1.50;;;;;;;16.23;43.44;100943.59;108242;1285;22004;-59
2023/05/05 00:27:42;;;;;;;3.90;1.90;;;;;;;16.27;43.31;100940.83;108181;1285;21993;-59
2023/05/05 00:30:08;;;;;;;4.20;1.80;;;;;;;16.15;43.40;100936.89;108261;1284;21988;-60
2023/05/05 00:32:35;;;;;;;3.40;1.50;;;;;;;16.22;43.26;100937.25;108204;1285;21988;-59
2023/05/05 00:35:01;;;;;;;3.60;1.60;;;;;;;16.13;43.29;100933.77;108227;1285;21987;-59
2023/05/05 00:37:27;;;;;;;3.10;1.10;;;;;;;16.16;43.22;100937.58;108167;1285;21999;-60
2023/05/05 00:39:52;;;;;;;8.00;1.60;;;;;;;16.19;43.05;100935.89;108150;1285;22026;-59
2023/05/05 00:42:18;;;;;;;3.60;1.10;;;;;;;16.19;43.08;100937.86;108250;1284;21994;-59
2023/05/05 00:44:44;;;;;;;2.40;1.10;;;;;;;16.18;43.07;100934.16;108227;1285;22014;-59
2023/05/05 00:47:10;;;;;;;4.20;1.40;;;;;;;16.16;42.99;100929.08;108315;1285;23631;-59
2023/05/05 00:49:36;;;;;;;2.30;1.30;;;;;;;16.01;43.31;100924.35;108295;1285;22022;-59
2023/05/05 00:52:02;;;;;;;3.00;1.40;;;;;;;15.92;43.48;100925.82;108236;1285;21988;-59
2023/05/05 00:54:28;;;;;;;3.90;1.40;;;;;;;15.99;43.20;100923.67;108160;1285;21996;-58
2023/05/05 00:56:53;;;;;;;4.00;1.30;;;;;;;16.00;43.03;100922.41;108196;1284;21977;-59
2023/05/05 00:59:19;;;;;;;4.30;1.30;;;;;;;15.96;43.01;100922.17;108088;1284;21990;-59
2023/05/05 01:01:45;;;;;;;2.50;1.10;;;;;;;15.88;43.12;100920.95;108120;1284;22119;-59
2023/05/05 01:04:11;;;;;;;5.00;1.30;;;;;;;15.78;43.22;100920.30;108283;1284;21983;-59
2023/05/05 01:07:02;;;;;;;3.10;1.20;;;;;;;15.60;43.45;100920.38;106780;1285;1002506;-58
2023/05/05 01:09:32;;;;;;;2.70;1.30;;;;;;;15.53;43.65;100920.72;108141;1285;22003;-58
2023/05/05 01:12:24;;;;;;;2.70;1.40;;;;;;;15.64;43.44;100919.59;108059;1279;182653;-60
2023/05/05 01:15:19;;;;;;;3.40;1.40;;;;;;;15.61;43.66;100918.95;108099;1285;21987;-60
2023/05/05 01:17:54;;;;;;;2.50;1.40;;;;;;;15.51;44.22;100925.36;108124;1285;22018;-59
2023/05/05 01:20:28;;;;;;;3.50;1.30;;;;;;;15.58;44.37;100924.13;108146;1284;22676;-59
2023/05/05 01:22:59;;;;;;;3.00;1.20;;;;;;;15.59;44.28;100919.36;108262;1285;22038;-59
2023/05/05 01:25:46;;;;;;;3.90;1.70;;;;;;;15.62;44.31;100914.16;108207;1285;22956;-60
2023/05/05 01:28:12;;;;;;;2.80;1.50;;;;;;;15.62;44.25;100909.73;108249;1285;21988;-59
2023/05/05 01:31:29;;;;;;;3.40;1.30;;;;;;;15.71;44.13;100905.25;108230;1285;22041;-59
2023/05/05 01:33:58;;;;;;;2.90;1.40;;;;;;;15.75;44.12;100901.77;108117;1285;21987;-58
2023/05/05 01:36:45;;;;;;;2.80;1.70;;;;;;;15.76;44.09;100902.10;108198;1285;23075;-59
2023/05/05 01:39:13;;;;;;;2.40;1.00;;;;;;;15.76;44.12;100902.11;108120;1284;22004;-59
2023/05/05 01:41:41;;;;;;;2.70;1.40;;;;;;;15.77;43.99;100897.14;108180;1285;21989;-59
2023/05/05 01:44:07;;;;;;;3.60;1.30;;;;;;;15.80;43.94;100900.08;108139;1285;21996;-59
2023/05/05 01:46:34;;;;;;;3.40;1.70;;;;;;;15.81;43.88;100897.77;108241;1284;22046;-59
2023/05/05 01:49:00;;;;;;;4.10;1.70;;;;;;;15.78;43.80;100892.34;108254;1285;21998;-58
2023/05/05 01:51:25;;;;;;;3.10;1.50;;;;;;;15.74;43.75;100889.59;108174;1284;21942;-59
2023/05/05 01:53:52;;;;;;;4.50;1.90;;;;;;;15.69;43.86;100886.36;108116;1285;23766;-59
2023/05/05 01:56:17;;;;;;;3.60;1.90;;;;;;;15.64;43.82;100884.04;108220;1285;21988;-59
2023/05/05 01:58:44;;;;;;;5.10;2.50;;;;;;;15.56;44.25;100884.04;108302;1285;21980;-59
2023/05/05 02:01:09;;;;;;;3.10;1.60;;;;;;;15.48;44.25;100889.73;108273;1285;21983;-58
2023/05/05 02:03:36;;;;;;;3.60;1.60;;;;;;;15.44;44.24;100889.83;108177;1285;21983;-59
2023/05/05 02:06:01;;;;;;;3.40;1.50;;;;;;;15.42;44.42;100888.64;108208;1285;21987;-59
2023/05/05 02:08:27;;;;;;;3.70;2.00;;;;;;;15.42;44.50;100888.48;108115;1284;21990;-60
2023/05/05 02:10:53;;;;;;;7.00;2.50;;;;;;;15.41;44.58;100886.17;108165;1285;21983;-59
2023/05/05 02:13:18;;;;;;;5.80;2.00;;;;;;;15.40;44.70;100887.27;108181;1285;22006;-58
2023/05/05 02:15:44;;;;;;;3.30;2.00;;;;;;;15.38;44.45;100888.39;108246;1285;21994;-59
2023/05/05 02:18:10;;;;;;;3.70;1.80;;;;;;;15.34;44.47;100886.17;108164;1285;23003;-59
2023/05/05 02:20:39;;;;;;;2.70;1.70;;;;;;;15.33;44.52;100884.25;108089;1278;22451;-58
2023/05/05 02:23:06;;;;;;;4.00;1.80;;;;;;;15.32;44.57;100883.40;108299;1285;21996;-58
2023/05/05 02:25:43;;;;;;;3.90;1.80;;;;;;;15.30;44.58;100886.08;108301;1285;21989;-59
2023/05/05 02:28:12;;;;;;;4.30;1.80;;;;;;;15.30;44.70;100886.08;108160;1285;21982;-60
2023/05/05 02:30:37;;;;;;;2.90;1.70;;;;;;;15.29;44.65;100886.98;108341;1285;24029;-60
2023/05/05 02:33:06;;;;;;;4.10;2.20;;;;;;;15.27;44.72;100886.49;108311;1285;23637;-60
2023/05/05 02:35:36;;;;;;;7.70;2.30;;;;;;;15.25;44.70;100884.77;108235;1285;22191;-59
2023/05/05 02:38:04;;;;;;;4.60;2.50;;;;;;;15.23;44.72;100886.28;108253;1285;23650;-59
2023/05/05 02:40:32;;;;;;;4.80;2.40;;;;;;;15.20;44.73;100882.27;108142;1285;21980;-60
2023/05/05 02:43:00;;;;;;;3.30;2.30;;;;;;;15.18;44.79;100881.08;108212;1277;22006;-58
2023/05/05 02:45:26;;;;;;;7.50;2.40;;;;;;;15.15;44.77;100876.20;108324;1285;22009;-58
2023/05/05 02:47:51;;;;;;;4.10;2.20;;;;;;;15.12;44.76;100877.84;108245;1285;21975;-59
2023/05/05 02:50:17;;;;;;;3.90;2.20;;;;;;;15.11;44.77;100879.46;108124;1285;21989;-59
2023/05/05 02:52:43;;;;;;;6.50;2.80;;;;;;;15.11;44.79;100877.88;108171;1285;21994;-59
2023/05/05 02:55:09;;;;;;;5.10;2.50;;;;;;;15.08;44.74;100878.47;108137;1285;21991;-59
2023/05/05 02:57:43;;;;;;;4.40;2.30;;;;;;;15.05;44.78;100877.65;108116;1284;21981;-58
2023/05/05 03:00:21;;;;;;;5.40;2.80;;;;;;;15.05;44.92;100879.05;108205;1285;21986;-60
2023/05/05 03:03:05;;;;;;;4.90;2.50;;;;;;;15.02;44.84;100879.13;108177;1285;21982;-59
2023/05/05 03:05:37;;;;;;;3.90;1.70;;;;;;;15.00;44.89;100877.05;108209;1285;23624;-59
2023/05/05 03:08:29;;;;;;;4.20;2.10;;;;;;;14.99;45.04;100876.04;108132;1285;21990;-60
2023/05/05 03:11:13;;;;;;;6.70;2.60;;;;;;;14.98;45.12;100873.41;108304;1285;22080;-59
2023/05/05 03:13:41;;;;;;;6.50;2.30;;;;;;;14.98;45.15;100868.63;108199;1285;22161;-60
2023/05/05 03:16:07;;;;;;;8.70;3.10;;;;;;;14.98;45.27;100868.96;105176;1285;1003188;-60
2023/05/05 03:18:41;;;;;;;9.40;2.90;;;;;;;14.98;45.29;100869.69;108071;1284;22742;-59
2023/05/05 03:21:07;;;;;;;5.80;3.20;;;;;;;14.98;45.39;100872.88;108137;1284;21978;-59
2023/05/05 03:23:34;;;;;;;10.50;3.10;;;;;;;14.91;45.60;100878.33;108272;1285;21993;-60
2023/05/05 03:26:00;;;;;;;6.90;2.90;;;;;;;14.91;45.84;100880.61;108327;1276;21971;-59
2023/05/05 03:28:26;;;;;;;5.10;2.30;;;;;;;15.00;45.79;100877.92;108228;1285;22006;-60
2023/05/05 03:30:52;;;;;;;4.40;2.80;;;;;;;14.96;46.14;100874.68;108337;1285;21998;-59
2023/05/05 03:33:18;;;;;;;8.10;3.00;;;;;;;15.13;46.01;100871.64;108149;1285;21999;-60
2023/05/05 03:35:44;;;;;;;8.70;2.90;;;;;;;15.22;46.12;100873.55;108103;1285;21989;-60
2023/05/05 03:38:09;;;;;;;9.30;3.30;;;;;;;15.28;46.33;100876.42;108170;1284;22004;-59
2023/05/05 03:40:35;;;;;;;5.50;2.80;;;;;;;15.31;46.97;100878.29;108099;1282;21987;-59
2023/05/05 03:43:01;;;;;;;4.50;2.60;;;;;;;15.32;46.98;100874.91;108187;1283;21988;-58
2023/05/05 03:45:27;;;;;;;9.60;2.80;;;;;;;15.35;47.63;100875.38;108059;1285;22453;-60
2023/05/05 03:47:52;;;;;;;9.50;2.50;;;;;;;15.38;47.24;100877.05;108134;1285;23049;-59
2023/05/05 03:50:18;;;;;;;6.00;2.40;;;;;;;15.45;47.29;100881.15;108101;1285;22275;-59
2023/05/05 03:52:44;;;;;;;5.50;2.60;;;;;;;15.51;47.32;100872.15;108235;1285;22022;-60
2023/05/05 03:55:09;;;;;;;7.80;2.70;;;;;;;15.57;47.46;100869.52;108376;1285;23636;-60
2023/05/05 03:57:35;;;;;;;4.80;2.20;;;;;;;15.65;47.46;100865.95;108222;1285;21981;-59
2023/05/05 04:00:01;;;;;;;4.50;2.70;;;;;;;15.72;48.23;100867.02;108122;1285;22001;-59
2023/05/05 04:02:26;;;;;;;4.00;2.30;;;;;;;15.80;48.58;100871.59;108144;1285;21970;-60
2023/05/05 04:04:52;;;;;;;7.70;2.50;;;;;;;15.92;48.63;100869.88;108107;1285;21986;-59
2023/05/05 04:07:18;;;;;;;5.70;2.10;;;;;;;16.07;48.36;100874.09;107329;1285;1002375;-60
2023/05/05 04:09:44;;;;;;;4.40;2.50;;;;;;;16.22;48.84;100873.84;108156;1285;22556;-59
2023/05/05 04:12:11;;;;;;;5.10;3.10;;;;;;;16.38;49.10;100873.74;108239;1285;21991;-60
2023/05/05 04:14:37;;;;;;;5.70;3.00;;;;;;;16.58;49.31;100876.39;108114;1285;23695;-59
2023/05/05 04:17:02;;;;;;;6.60;3.50;;;;;;;16.80;49.63;100876.23;108089;1285;21991;-60
2023/05/05 04:19:31;;;;;;;6.20;3.40;;;;;;;17.03;49.63;100872.20;108086;1285;21997;-60
2023/05/05 04:21:56;;;;;;;5.60;2.60;;;;;;;17.26;49.82;100872.92;108138;1285;22449;-60
2023/05/05 04:24:23;;;;;;;4.70;2.90;;;;;;;17.47;49.69;100871.53;108083;1285;21994;-60
2023/05/05 04:26:50;;;;;;;10.10;2.60;;;;;;;17.68;49.73;100871.17;108112;1285;21992;-59
2023/05/05 04:29:16;;;;;;;8.20;3.10;;;;;;;17.88;49.62;100869.77;107348;1285;1002424;-60
2023/05/05 04:31:42;;;;;;;5.10;3.00;;;;;;;18.06;49.29;100872.89;108227;1277;21995;-60
2023/05/05 04:34:08;;;;;;;8.50;2.90;;;;;;;18.24;49.41;100870.15;108087;1285;21991;-60
2023/05/05 04:36:34;;;;;;;7.00;3.10;;;;;;;18.41;49.18;100867.39;108128;1284;23623;-61
2023/05/05 04:38:59;;;;;;;5.40;3.10;;;;;;;18.60;49.13;100868.64;108111;1285;21985;-60
2023/05/05 04:41:25;;;;;;;10.40;3.90;;;;;;;18.78;48.86;100869.02;108049;1285;21998;-60
2023/05/05 04:43:54;;;;;;;5.30;2.70;;;;;;;18.95;48.43;100865.20;108043;1285;21994;-60
2023/05/05 04:46:20;;;;;;;10.30;3.30;;;;;;;19.10;48.33;100862.30;108178;1285;21989;-61
2023/05/05 04:48:46;;;;;;;8.00;3.20;;;;;;;19.24;48.13;100861.20;108136;1285;21994;-61
2023/05/05 04:51:12;;;;;;;4.10;2.10;;;;;;;19.38;47.93;100856.52;108104;1285;21989;-60
2023/05/05 04:53:38;;;;;;;5.60;2.50;;;;;;;19.53;47.48;100860.86;108187;1285;21982;-61
2023/05/05 04:56:04;;;;;;;8.00;2.80;;;;;;;19.66;47.34;100857.52;108187;1285;23725;-60
2023/05/05 04:58:30;;;;;;;7.10;3.20;;;;;;;19.78;47.12;100856.63;108141;1285;21994;-60
2023/05/05 05:00:56;;;;;;;6.40;2.80;;;;;;;19.91;47.00;100858.05;108113;1285;21983;-60
2023/05/05 05:03:22;;;;;;;7.10;2.40;;;;;;;20.05;46.74;100854.43;108096;1285;21982;-61
2023/05/05 05:05:47;;;;;;;8.00;2.60;;;;;;;20.19;46.66;100854.52;108117;1285;21979;-61
2023/05/05 05:08:16;;;;;;;3.90;2.00;;;;;;;20.36;46.68;100852.15;108102;1285;21996;-60
2023/05/05 05:10:42;;;;;;;7.60;2.30;;;;;;;20.54;46.51;100849.35;108118;1285;21989;-60
2023/05/05 05:13:09;;;;;;;5.60;2.00;;;;;;;20.73;46.22;100852.41;108553;1285;22019;-60
2023/05/05 05:15:37;;;;;;;7.80;2.60;;;;;;;20.91;46.15;100848.39;108125;1285;21987;-60
2023/05/05 05:18:03;;;;;;;5.30;2.10;;;;;;;21.11;45.88;100844.05;108060;1281;21998;-60
2023/05/05 05:20:29;;;;;;;7.30;2.20;;;;;;;21.28;45.72;100843.88;108143;1285;21989;-60
2023/05/05 05:22:56;;;;;;;6.00;2.60;;;;;;;21.46;45.56;100840.85;108075;1285;21986;-60
2023/05/05 05:25:22;;;;;;;5.30;2.20;;;;;;;21.63;45.25;100836.99;108115;1285;22413;-60
2023/05/05 05:27:48;;;;;;;4.60;2.40;;;;;;;21.81;44.87;100839.27;108051;1285;21989;-60
2023/05/05 05:30:14;;;;;;;4.80;2.00;;;;;;;22.03;44.91;100839.19;108190;1285;22077;-59
2023/05/05 05:32:40;;;;;;;41.30;4.60;;;;;;;22.30;44.64;100843.68;108177;1283;22006;-60
2023/05/05 05:35:06;;;;;;;11.40;2.90;;;;;;;22.54;44.63;100844.20;108117;1285;22046;-59
2023/05/05 05:37:35;;;;;;;5.70;2.20;;;;;;;22.70;44.48;100841.70;108074;1285;21990;-59
2023/05/05 05:40:01;;;;;;;5.70;2.00;;;;;;;22.80;44.34;100843.30;108161;1285;21992;-59
2023/05/05 05:42:27;;;;;;;3.40;2.00;;;;;;;23.11;44.06;100843.36;108194;1284;21986;-60
2023/05/05 05:44:52;;;;;;;6.00;2.00;;;;;;;23.33;43.56;100841.92;108117;1285;21986;-60
2023/05/05 05:47:18;;;;;;;6.10;1.70;;;;;;;23.53;43.43;100840.78;108217;1285;22474;-61
2023/05/05 05:49:43;;;;;;;4.40;2.00;;;;;;;23.72;43.16;100843.58;108108;1285;22461;-60
2023/05/05 05:52:09;;;;;;;3.90;1.90;;;;;;;23.94;43.05;100845.32;108092;1283;22002;-61
2023/05/05 05:54:35;;;;;;;5.50;1.90;;;;;;;24.09;42.49;100842.45;108108;1285;21996;-59
2023/05/05 05:57:01;;;;;;;3.30;1.90;;;;;;;24.16;42.56;100840.02;108057;1285;22036;-58
2023/05/05 05:59:27;;;;;;;3.60;1.80;;;;;;;24.33;42.86;100837.38;108076;1284;22092;-58
2023/05/05 06:01:54;;;;;;;12.80;2.50;;;;;;;24.56;42.12;100833.57;108238;1285;21990;-59
2023/05/05 06:04:20;;;;;;;6.40;1.90;;;;;;;24.86;42.09;100831.86;108132;1284;21981;-59
2023/05/05 06:06:46;;;;;;;6.10;2.00;;;;;;;25.14;41.79;100832.90;108186;1284;21991;-59
2023/05/05 06:09:11;;;;;;;3.70;1.70;;;;;;;25.42;40.89;100831.61;108133;1284;22262;-59
2023/05/05 06:11:37;;;;;;;2.60;1.70;;;;;;;25.58;40.69;100826.59;108056;1285;21985;-59
2023/05/05 06:14:03;;;;;;;4.30;1.60;;;;;;;25.67;40.46;100824.55;108066;1285;22008;-59
2023/05/05 06:16:28;;;;;;;3.60;1.50;;;;;;;25.85;40.21;100826.15;108060;1285;21992;-60
2023/05/05 06:18:54;;;;;;;3.30;1.60;;;;;;;26.04;40.09;100823.27;108090;1284;21998;-60
2023/05/05 06:21:20;;;;;;;4.40;1.70;;;;;;;26.20;40.03;100820.69;108037;1284;22046;-60
2023/05/05 06:23:46;;;;;;;3.10;1.50;;;;;;;26.43;40.16;100817.64;108066;1285;22201;-61
2023/05/05 06:26:12;;;;;;;4.70;1.60;;;;;;;26.72;40.03;100815.73;108144;1285;22033;-60
2023/05/05 06:28:38;;;;;;;3.30;1.40;;;;;;;26.97;39.78;100813.17;108103;1285;21994;-60
2023/05/05 06:31:03;;;;;;;5.10;1.50;;;;;;;27.22;39.34;100808.98;108051;1285;21994;-59
2023/05/05 06:33:30;;;;;;;3.80;1.50;;;;;;;27.38;38.86;100808.10;108035;1285;21991;-60
2023/05/05 06:35:55;;;;;;;3.30;1.20;;;;;;;27.50;38.48;100805.79;108076;1285;21997;-60
2023/05/05 06:38:21;;;;;;;3.60;1.70;;;;;;;27.69;38.66;100802.55;108075;1285;23685;-60
2023/05/05 06:40:48;;;;;;;3.30;1.50;;;;;;;27.84;38.29;100803.69;108065;1284;21991;-60
2023/05/05 06:43:14;;;;;;;3.70;1.40;;;;;;;28.00;37.83;100798.86;108110;1285;21991;-59
2023/05/05 06:45:40;;;;;;;4.70;1.30;;;;;;;28.18;37.50;100800.85;108109;1285;22577;-59
2023/05/05 06:48:05;;;;;;;3.60;1.30;;;;;;;28.42;37.23;100797.73;108035;1285;21988;-59
2023/05/05 06:50:32;;;;;;;5.30;1.50;;;;;;;28.62;37.30;100799.12;108059;1284;22080;-59
2023/05/05 06:52:57;;;;;;;7.20;1.80;;;;;;;28.83;36.95;100795.14;108301;1285;22109;-59
2023/05/05 06:55:23;;;;;;;8.00;1.70;;;;;;;29.01;36.39;100790.36;108324;1285;21983;-60
2023/05/05 06:57:49;;;;;;;4.30;1.90;;;;;;;29.17;35.82;100789.03;108059;1285;21994;-62
2023/05/05 07:00:16;;;;;;;3.50;1.70;;;;;;;29.30;36.14;100789.71;108041;1285;21981;-62
2023/05/05 07:02:42;;;;;;;5.50;1.90;;;;;;;29.47;36.13;100786.74;108200;1284;21990;-61
2023/05/05 07:05:08;;;;;;;5.40;1.90;;;;;;;29.59;35.42;100786.79;108084;1285;22253;-59
2023/05/05 07:07:35;;;;;;;3.00;1.50;;;;;;;29.66;34.86;100785.50;108172;1285;22456;-59
2023/05/05 07:10:01;;;;;;;3.40;1.60;;;;;;;29.88;34.92;100785.75;108114;1285;22031;-59
2023/05/05 07:12:28;;;;;;;4.00;1.60;;;;;;;30.22;35.28;100785.27;108034;1285;21995;-60
2023/05/05 07:14:55;;;;;;;2.10;1.10;;;;;;;30.50;35.06;100783.34;108057;1285;21985;-60
2023/05/05 07:17:20;;;;;;;3.10;1.40;;;;;;;30.80;34.76;100783.34;108056;1285;21987;-59
2023/05/05 07:19:47;;;;;;;5.70;1.60;;;;;;;31.05;33.93;100783.41;108053;1285;21993;-59
2023/05/05 07:22:13;;;;;;;2.50;1.40;;;;;;;31.26;34.38;100781.50;108088;1284;22007;-61
2023/05/05 07:24:39;;;;;;;2.40;1.30;;;;;;;31.45;34.02;100774.53;108091;1285;22015;-59
2023/05/05 07:27:05;;;;;;;1.90;1.00;;;;;;;31.62;33.77;100777.05;108087;1285;21982;-60
2023/05/05 07:29:32;;;;;;;4.90;1.20;;;;;;;31.75;33.70;100779.48;108190;1285;23701;-59
2023/05/05 07:31:57;;;;;;;5.30;1.40;;;;;;;31.94;33.61;100779.14;108057;1285;21993;-59
2023/05/05 07:34:23;;;;;;;3.40;1.30;;;;;;;32.15;33.31;100773.84;108100;1285;22190;-60
2023/05/05 07:36:49;;;;;;;3.10;1.10;;;;;;;32.41;33.28;100773.47;108074;1285;21988;-59
2023/05/05 07:39:14;;;;;;;2.50;1.00;;;;;;;32.66;33.25;100770.49;108083;1285;21964;-61
2023/05/05 07:41:41;;;;;;;3.90;1.20;;;;;;;32.85;32.55;100769.11;108099;1285;21987;-60
2023/05/05 07:44:07;;;;;;;2.70;1.40;;;;;;;32.92;32.35;100766.45;108140;1285;21988;-59
2023/05/05 07:46:33;;;;;;;2.90;1.30;;;;;;;32.85;32.17;100764.55;108105;1285;21986;-59
2023/05/05 07:48:59;;;;;;;1.50;1.10;;;;;;;32.87;31.97;100766.73;108037;1285;22449;-59
2023/05/05 07:51:25;;;;;;;4.00;1.30;;;;;;;33.02;32.11;100767.64;108045;1285;21995;-60
2023/05/05 07:53:51;;;;;;;3.00;1.10;;;;;;;33.28;31.47;100766.80;108084;1285;21997;-59
2023/05/05 07:56:17;;;;;;;3.00;0.90;;;;;;;33.53;31.22;100763.21;108070;1285;21990;-60
2023/05/05 07:58:42;;;;;;;4.50;1.00;;;;;;;33.70;31.54;100759.00;108175;1285;21984;-61
2023/05/05 08:01:10;;;;;;;4.00;1.20;;;;;;;33.84;31.15;100759.38;108026;1285;24863;-59
2023/05/05 08:03:36;;;;;;;2.70;1.00;;;;;;;33.96;30.70;100757.46;108099;1285;21996;-60
2023/05/05 08:06:08;;;;;;;2.60;1.30;;;;;;;34.15;30.99;100761.11;108088;1285;21990;-60
2023/05/05 08:08:34;;;;;;;3.50;1.10;;;;;;;34.33;30.97;100764.66;108034;1285;21989;-60
2023/05/05 08:11:00;;;;;;;3.20;1.20;;;;;;;34.48;30.46;100760.35;108153;1285;22026;-60
2023/05/05 08:13:26;;;;;;;2.80;1.10;;;;;;;34.64;30.54;100763.16;108064;1285;22003;-60
2023/05/05 08:15:54;;;;;;;1.90;1.00;;;;;;;34.78;30.52;100761.09;108044;1285;21982;-59
2023/05/05 08:18:20;;;;;;;3.00;1.30;;;;;;;34.96;30.36;100762.24;108230;1285;23621;-59
2023/05/05 08:20:46;;;;;;;4.00;1.40;;;;;;;35.12;29.40;100761.41;107986;1285;21983;-62
2023/05/05 08:23:12;;;;;;;2.40;1.00;;;;;;;35.23;29.24;100766.71;108034;1284;23777;-59
2023/05/05 08:25:37;;;;;;;2.60;1.20;;;;;;;35.34;28.56;100766.29;108064;1285;21993;-61
2023/05/05 08:28:03;;;;;;;4.20;1.30;;;;;;;35.42;29.04;100770.27;108240;1285;23726;-60
2023/05/05 08:30:29;;;;;;;4.70;1.60;;;;;;;35.38;28.58;100770.73;108068;1285;22046;-62
2023/05/05 08:32:55;;;;;;;3.20;1.60;;;;;;;35.31;28.64;100767.33;108061;1285;21986;-60
2023/05/05 08:35:21;;;;;;;2.60;1.10;;;;;;;35.39;29.13;100769.50;108088;1285;21991;-62
2023/05/05 08:37:46;;;;;;;4.80;1.30;;;;;;;35.39;28.82;100771.00;108059;1285;21993;-62
2023/05/05 08:40:13;;;;;;;2.80;1.30;;;;;;;35.40;28.20;100764.84;108024;1285;22024;-61
2023/05/05 08:42:40;;;;;;;2.60;1.30;;;;;;;35.58;28.23;100761.00;108191;1284;21993;-63
2023/05/05 08:45:07;;;;;;;3.20;1.60;;;;;;;35.74;28.13;100762.48;108112;1284;21988;-62
2023/05/05 08:47:34;;;;;;;2.50;1.20;;;;;;;35.60;27.91;100763.14;108099;1285;21989;-60
2023/05/05 08:50:00;;;;;;;2.00;1.10;;;;;;;35.51;28.19;100766.91;108115;1284;21986;-60
2023/05/05 08:52:28;;;;;;;4.00;1.30;;;;;;;35.60;28.23;100770.30;108073;1284;21983;-62
2023/05/05 08:54:56;;;;;;;2.30;1.30;;;;;;;35.83;27.58;100770.04;108105;1285;21994;-60
2023/05/05 08:57:26;;;;;;;3.00;1.10;;;;;;;36.05;28.08;100768.82;108150;1285;22743;-60
2023/05/05 08:59:52;;;;;;;2.10;1.20;;;;;;;36.09;27.67;100764.91;108106;1285;23695;-61
2023/05/05 09:02:18;;;;;;;2.10;1.20;;;;;;;36.08;28.00;100766.55;108027;1285;21994;-60
2023/05/05 09:04:44;;;;;;;3.20;1.30;;;;;;;36.37;28.55;100762.28;108083;1285;22018;-60
2023/05/05 09:07:09;;;;;;;4.70;1.30;;;;;;;36.69;27.83;100768.45;108170;1285;22003;-62
2023/05/05 09:09:37;;;;;;;2.00;1.40;;;;;;;37.03;27.77;100768.69;108034;1285;23798;-60
2023/05/05 09:12:03;;;;;;;3.70;1.20;;;;;;;37.44;27.34;100767.08;108089;1285;22043;-61
2023/05/05 09:14:29;;;;;;;3.10;1.10;;;;;;;37.73;27.16;100762.83;108037;1285;21987;-62
2023/05/05 09:16:55;;;;;;;2.70;1.20;;;;;;;37.97;26.33;100758.52;108061;1284;23605;-61
2023/05/05 09:19:21;;;;;;;4.70;1.30;;;;;;;38.15;26.98;100758.77;108072;1284;21982;-63
2023/05/05 09:21:49;;;;;;;4.70;1.40;;;;;;;38.35;26.77;100756.47;108200;1285;22046;-61
2023/05/05 09:24:15;;;;;;;30.30;2.20;;;;;;;38.53;26.65;100754.45;108036;1285;21987;-59
2023/05/05 09:26:45;;;;;;;3.30;1.20;;;;;;;38.76;26.82;100753.92;108036;1285;21995;-62
2023/05/05 09:29:18;;;;;;;1.60;1.00;;;;;;;39.03;26.43;100753.60;108229;1285;23060;-61
2023/05/05 09:31:43;;;;;;;5.90;1.30;;;;;;;39.33;25.78;100755.14;108181;1284;21964;-59
2023/05/05 09:34:13;;;;;;;4.40;1.40;;;;;;;39.46;26.05;100755.86;108178;1285;21985;-59
2023/05/05 09:36:43;;;;;;;4.50;1.40;;;;;;;39.63;25.92;100756.91;108095;1285;23721;-60
2023/05/05 09:39:09;;;;;;;4.70;1.30;;;;;;;39.83;26.31;100751.78;108064;1285;21952;-60
2023/05/05 09:41:39;;;;;;;3.50;1.50;;;;;;;40.03;25.88;100749.30;108170;1285;21991;-59
2023/05/05 09:44:05;;;;;;;;;;;;;;;39.96;24.61;100749.48;108168;1285;21981;-61
2023/05/05 09:46:31;;;;;;;5.10;1.50;;;;;;;39.62;23.78;100753.00;108110;1284;24100;-59
2023/05/05 09:49:11;;;;;;;3.60;1.10;;;;;;;39.36;24.94;100757.94;108069;1275;22091;-62
2023/05/05 09:51:37;;;;;;;2.60;1.20;;;;;;;39.26;25.36;100756.29;108065;1283;21989;-63
2023/05/05 09:54:02;;;;;;;3.30;1.50;;;;;;;39.14;25.64;100755.35;108067;1285;22023;-62
2023/05/05 09:56:37;;;;;;;3.70;1.20;;;;;;;38.99;25.23;100748.80;108004;1285;23744;-59
2023/05/05 09:59:09;;;;;;;2.40;1.10;;;;;;;38.83;25.06;100749.21;108243;1285;24325;-60
2023/05/05 10:01:35;;;;;;;14.70;1.80;;;;;;;38.71;25.52;100756.59;108049;1285;21996;-62
2023/05/05 10:04:01;;;;;;;5.00;1.30;;;;;;;38.75;24.86;100757.73;108146;1285;21986;-60
2023/05/05 10:06:47;;;;;;;3.30;1.20;;;;;;;38.56;24.71;100753.96;108032;1285;22865;-64
2023/05/05 10:09:13;;;;;;;6.90;1.50;;;;;;;38.45;25.14;100755.63;108005;1285;22003;-60
2023/05/05 10:11:40;;;;;;;1.90;1.10;;;;;;;38.62;25.06;100754.28;108089;1285;21986;-63
2023/05/05 10:14:06;;;;;;;2.80;1.10;;;;;;;38.73;24.53;100755.66;108115;1285;23719;-60
2023/05/05 10:16:32;;;;;;;3.40;1.10;;;;;;;38.55;24.33;100754.34;108042;1285;21994;-63
2023/05/05 10:19:00;;;;;;;4.20;1.20;;;;;;;38.24;24.58;100753.33;108056;1285;23619;-63
2023/05/05 10:21:26;;;;;;;1.80;1.20;;;;;;;37.99;24.60;100753.27;108050;1284;21989;-63
2023/05/05 10:24:02;;;;;;;3.70;1.50;;;;;;;37.90;24.57;100749.20;108122;1285;22021;-64
2023/05/05 10:26:28;;;;;;;12.00;2.10;;;;;;;38.02;24.41;100747.98;108071;1285;21986;-62
2023/05/05 10:28:54;;;;;;;3.00;1.30;;;;;;;38.26;24.82;100745.41;108223;1284;22001;-60
2023/05/05 10:31:33;;;;;;;8.40;1.60;;;;;;;38.60;24.95;100745.21;108110;1285;22029;-64
2023/05/05 10:34:02;;;;;;;2.40;1.00;;;;;;;39.04;24.24;100741.08;108267;1283;23641;-63
2023/05/05 10:36:29;;;;;;;3.70;1.20;;;;;;;39.38;23.40;100739.45;108143;1285;22004;-59
2023/05/05 10:38:58;;;;;;;2.90;1.10;;;;;;;39.61;23.42;100735.29;108200;1285;22015;-60
2023/05/05 10:41:27;;;;;;;2.20;1.30;;;;;;;39.76;23.63;100733.44;108160;1285;21985;-61
2023/05/05 10:43:56;;;;;;;5.10;1.30;;;;;;;40.01;23.63;100734.29;108141;1284;21974;-61
2023/05/05 10:46:22;;;;;;;4.60;1.50;;;;;;;40.29;24.17;100730.97;108132;1284;22332;-62
2023/05/05 10:48:52;;;;;;;3.40;1.10;;;;;;;40.62;23.97;100728.04;107995;1285;23291;-64
2023/05/05 10:51:38;;;;;;;2.30;1.00;;;;;;;40.89;23.62;100725.48;107904;1285;21985;-60
2023/05/05 10:54:09;;;;;;;12.20;1.90;;;;;;;40.86;22.69;100723.11;108004;1282;21989;-63
2023/05/05 10:56:35;;;;;;;6.40;1.60;;;;;;;40.32;21.27;100726.52;108071;1283;21984;-62
2023/05/05 10:59:00;;;;;;;2.50;1.20;;;;;;;39.26;20.62;100729.71;108025;1284;22260;-60
2023/05/05 11:01:31;;;;;;;6.80;1.10;;;;;;;38.07;21.45;100726.21;108202;1285;22112;-60
2023/05/05 11:04:15;;;;;;;3.10;1.30;;;;;;;37.14;22.03;100730.16;107989;1285;21985;-61
2023/05/05 11:07:07;;;;;;;2.00;1.00;;;;;;;36.41;22.56;100730.21;108047;1282;22508;-64
2023/05/05 11:09:40;;;;;;;2.90;1.30;;;;;;;35.95;22.72;100725.62;108042;1285;22835;-60
2023/05/05 11:12:07;;;;;;;2.70;1.10;;;;;;;35.78;22.40;100724.23;108083;1285;21989;-65
2023/05/05 11:14:33;;;;;;;3.30;1.20;;;;;;;35.59;22.39;100721.86;108153;1285;23761;-65
2023/05/05 11:16:59;;;;;;;1.90;1.20;;;;;;;35.64;23.31;100721.48;108159;1285;22000;-64
2023/05/05 11:19:50;;;;;;;1.90;0.90;;;;;;;36.05;23.75;100718.88;108043;1284;21997;-60